• Join FlightAware (Why Join?)
  • Login
  • US Flag 
Rudolph Flight #1: Arrived! 
09:37PM EST


 

Airport Tracker/Info


-or-


 

Live Flight TrackerFlight Track Log ✈ SKW7375 ✈ 24-May-2013 ✈ KBRD - KINL

Flight Track Log - Related Links

Times and Time Zones

All times are in EDT time to prevent confusion due to time zone crossing. See the SKW7375 flight status page for this flight to view local times or setup timezone preferences in your user account.

Time Position Orientation Groundspeed Altitude Reporting Facility
EDT Latitude Longitude Course Direction KTS MPH feet Rate Location/Type
09:49PM 47.4262 -93.7955 13° North  Level Estimated
09:50PM 47.5397 -93.7571 13° North  Level Estimated
09:51PM 47.6532 -93.7186 13° North  Level Estimated
09:52PM 47.7667 -93.6799 13° North  Level Estimated
09:53PM 47.8801 -93.6410 13° North  Level Estimated
09:54PM 47.9936 -93.6019 13° North  Level Estimated
09:55PM 48.1070 -93.5627 13° North  Level Estimated
09:56PM 48.2204 -93.5232 13° North  Level Estimated
09:57PM 48.3338 -93.4837 13° North  Level Estimated
09:58PM 48.4472 -93.4439 13° North  Level Estimated
09:59PM 48.5606 -93.4039 13° North  Level Estimated
10:00PM 48.5656 -93.4022 13° North  Level Estimated
10:01PM 48.5656 -93.4022 33° Northeast  Level Estimated
10:02PM 48.5656 -93.4022 33° Northeast  Level Estimated
10:03PM 48.5656 -93.4022 33° Northeast  Level Estimated
10:04PM 48.5656 -93.4022 33° Northeast  Level Estimated
10:05PM 48.5656 -93.4022 33° Northeast  Level Estimated
10:06PM 48.5656 -93.4022 33° Northeast  Level Estimated
10:07PM 48.5656 -93.4022 33° Northeast  Level Estimated
10:08PM 48.5656 -93.4022 33° Northeast  Level Estimated
10:09PM 48.5656 -93.4022 33° Northeast  Level Estimated